PWSweather.com
Personal Weather Stations
Station Observations
REUBENS
Camas Prairie, Reubens, ID 83548

Camas PrairieReubens, ID 83548

Lat: 46.35417, Lon: -116.53167

Elevation: 3480

Station Type: Davis VantagePro 2

http://www.theobrienranch.com/wx/wx.htm

Latest ConditionsUpdated 4:45:00 AM PST Sunday, Feb 7, 2016
Currently Today's Max Today's Min Today's Average
Temperature 27.8°F-2.3°C 32.4°F0.2°C 27.4°F-2.6°C 29.5°F-1.4°C
Dew Point 22.4°F-5.3°C 25.1°F-3.8°C 21.8°F-5.7°C 23.6°F-4.7°C
Winds Calm Calm 4.6 mph S7.4 kmh S - 2.1 mph 3.4 kmh
Wind Gusts -- 5.8 mph9.3 kmh - -
Humidity 80% 83% 74% 79%
Pressure 30.74 in1041.0 mb 30.74 in1041.0 mb 30.66 in1038.3 mb -
Hour Temp Dew Point Humidity Winds Wind Gusts Pressure Precip Precip Rate Daily Precip Total
04:45 AM 27.8°F-2.3°C 22.4°F-5.3°C 80% Calm Calm -- 30.74 in1041.0 mb - 0.00 in0.0 mm 0.00 in0.0 mm
04:30 AM 28.0°F-2.2°C 22.6°F-5.2°C 80% Calm Calm -- 30.74 in1041.0 mb - 0.00 in0.0 mm 0.00 in0.0 mm
04:15 AM 28.3°F-2.1°C 22.6°F-5.2°C 79% 1.2 mph S1.9 kmh S 1.2 mph1.9 kmh 30.73 in1040.6 mb - 0.00 in0.0 mm 0.00 in0.0 mm
04:00 AM 27.7°F-2.4°C 22.3°F-5.4°C 80% 2.3 mph S3.7 kmh S 3.5 mph5.6 kmh 30.72 in1040.3 mb - 0.00 in0.0 mm 0.00 in0.0 mm
03:45 AM 28.3°F-2.1°C 22.9°F-5.1°C 80% 3.5 mph S5.6 kmh S 3.5 mph5.6 kmh 30.71 in1040.0 mb - 0.00 in0.0 mm 0.00 in0.0 mm
03:30 AM 27.4°F-2.6°C 21.8°F-5.7°C 79% 3.5 mph S5.6 kmh S 3.5 mph5.6 kmh 30.70 in1039.6 mb - 0.00 in0.0 mm 0.00 in0.0 mm
03:15 AM 28.6°F-1.9°C 22.9°F-5.1°C 79% 3.5 mph S5.6 kmh S 5.8 mph9.3 kmh 30.70 in1039.6 mb - 0.00 in0.0 mm 0.00 in0.0 mm
03:00 AM 28.9°F-1.7°C 23.2°F-4.9°C 79% 3.5 mph S5.6 kmh S 4.6 mph7.4 kmh 30.70 in1039.6 mb - 0.00 in0.0 mm 0.00 in0.0 mm
02:45 AM 29.7°F-1.3°C 23.3°F-4.8°C 77% 3.5 mph S5.6 kmh S 3.5 mph5.6 kmh 30.69 in1039.3 mb - 0.00 in0.0 mm 0.00 in0.0 mm
02:30 AM 30.5°F-0.8°C 24.1°F-4.4°C 77% Calm Calm -- 30.68 in1038.9 mb - 0.00 in0.0 mm 0.00 in0.0 mm
02:15 AM 30.4°F-0.9°C 24.1°F-4.4°C 77% Calm Calm -- 30.68 in1038.9 mb - 0.00 in0.0 mm 0.00 in0.0 mm
02:00 AM 30.4°F-0.9°C 24.4°F-4.2°C 78% 1.2 mph S1.9 kmh S 2.3 mph3.7 kmh 30.68 in1038.9 mb - 0.00 in0.0 mm 0.00 in0.0 mm
01:45 AM 30.1°F-1.1°C 24.1°F-4.4°C 78% 2.3 mph S3.7 kmh S 3.5 mph5.6 kmh 30.68 in1038.9 mb - 0.00 in0.0 mm 0.00 in0.0 mm
01:30 AM 30.6°F-0.8°C 24.5°F-4.2°C 78% 2.3 mph S3.7 kmh S 3.5 mph5.6 kmh 30.67 in1038.6 mb - 0.00 in0.0 mm 0.00 in0.0 mm
01:15 AM 30.1°F-1.1°C 24.1°F-4.4°C 78% Calm Calm -- 30.67 in1038.6 mb - 0.00 in0.0 mm 0.00 in0.0 mm
01:00 AM 30.1°F-1.1°C 24.1°F-4.4°C 78% Calm Calm -- 30.67 in1038.6 mb - 0.00 in0.0 mm 0.00 in0.0 mm
12:45 AM 32.4°F0.2°C 25.1°F-3.8°C 74% 3.5 mph S5.6 kmh S 3.5 mph5.6 kmh 30.66 in1038.3 mb - 0.00 in0.0 mm 0.00 in0.0 mm
12:30 AM 31.1°F-0.5°C 25.1°F-3.8°C 78% 3.5 mph S5.6 kmh S 3.5 mph5.6 kmh 30.68 in1038.9 mb - 0.00 in0.0 mm 0.00 in0.0 mm
12:15 AM 29.0°F-1.7°C 24.5°F-4.2°C 83% 4.6 mph S7.4 kmh S 4.6 mph7.4 kmh 30.68 in1038.9 mb - 0.00 in0.0 mm 0.00 in0.0 mm
12:00 AM 30.3°F-0.9°C 24.6°F-4.1°C 79% 3.5 mph S5.6 kmh S 3.5 mph5.6 kmh 30.67 in1038.6 mb - 0.00 in0.0 mm 0.00 in0.0 mm